الصفحة الرئيسية
METAR-TAF:

METAR-TAF

مطار :

داروين, أستراليا

دائرة عرض: 12-24S, خط طول: 130-52E, ارتفاع: 31 متر

مراقبة الطقس الحالي

تاريخ ووقت الإصدار 21 دقيقة قبل الساعة 22:30UTC
ريح 11 عقدة من الغرب
درجة الحرارة 29°درجة مئوية
الرطوبة 79%
ضغط 1008 hPa
الرؤية 10 كم أو أكثر
غيوم قليلة على ارتفاع 1500 قدم
غيوم متفرقة على ارتفاع 9900 قدم

METAR: YPDN 052230Z 28011KT 9999 FEW015 SCT099 29/25 Q1008

زمن: 08:21 (22:51 UTC)

توقعات

تاريخ ووقت الإصدار 3ساعات و 14 دقيقة قبل الساعة 19:37UTC
التوقعات صالحة من05 الساعة 21 UTC إلى 07 الساعة 00 UTC
ريح 10 عقدة من الغرب
الرؤية 10 كم أو أكثر
غيوم متفرقة على ارتفاع 1600 قدم
من 06 الساعة 0000 UTC
ريح 14 عقدة من الغرب
الرؤية 10 كم أو أكثر
غيوم متفرقة على ارتفاع 2500 قدم
من 06 الساعة 1000 UTC
ريح 8 عقدة من الغرب
الرؤية 10 كم أو أكثر
غيوم قليلة على ارتفاع 1500 قدم

TAF: YPDN 051937Z 0521/0700 28010KT 9999 SCT016 FM060000 28014KT 9999 SCT025 FM061000 28008KT 9999 FEW015

أرصاد الطقس والتوقعات من أكثر من 4000 مطار (تقارير الطقس للمطار METAR والتنبؤ بالطقس بالمطارTAF).

المحطات المتاحة هي النقط الصفراء والحمراء على الخريطة.

حرك المؤشر فوق النقطة لمعرفة اسم المحطة.

ثم انقر لمعرفة أرصاد وتوقعات الطقس.

لتغيير الخارطة: اضغط على الأزرار الخضراء مع رمز الصليب الأسود للتكبير. على الزر الأخضر مع شرطة للتصغير، أو على الأسهم الخضراء للخرائط المجاورة.


METAR-TAF: